Time;durP1;ratioP1;P1;durP2;ratioP2;P2;SDS_P1;SDS_P2;PMS_P1;PMS_P2;Temp;Humidity;BMP_temperature;BMP_pressure;BME280_temperature;BME280_humidity;BME280_pressure;Samples;Min_cycle;Max_cycle;Signal;HPM_P1;HPM_P2
2021/11/14 00:01:00;;;;;;;81.13;40.15;;;;;;;5.75;70.08;100215.13;5050696;28;20079;-74
2021/11/14 00:03:26;;;;;;;69.65;37.10;;;;;;;5.77;70.05;100211.56;5050940;28;20021;-74
2021/11/14 00:05:53;;;;;;;75.70;39.75;;;;;;;5.54;69.98;100163.75;5050841;28;20036;-74
2021/11/14 00:08:20;;;;;;;87.60;41.17;;;;;;;5.83;69.91;100211.84;5051025;28;20025;-74
2021/11/14 00:10:50;;;;;;;75.13;38.73;;;;;;;5.82;70.15;100210.19;5050754;28;20036;-74
2021/11/14 00:13:16;;;;;;;91.80;45.17;;;;;;;5.49;70.10;100160.69;5050787;28;20021;-74
2021/11/14 00:15:41;;;;;;;67.77;38.07;;;;;;;5.90;70.17;100212.19;5050814;28;20028;-74
2021/11/14 00:18:08;;;;;;;95.50;43.50;;;;;;;5.79;69.69;100199.16;5050635;28;20017;-74
2021/11/14 00:20:35;;;;;;;87.87;41.33;;;;;;;5.91;69.64;100211.22;5050554;28;20021;-74
2021/11/14 00:23:00;;;;;;;86.80;41.60;;;;;;;5.91;70.01;100201.56;5050503;28;20057;-74
2021/11/14 00:25:26;;;;;;;81.20;40.77;;;;;;;5.68;70.73;100177.31;5050731;28;20410;-74
2021/11/14 00:27:52;;;;;;;94.17;45.93;;;;;;;5.97;69.88;100203.69;5050768;28;20021;-74
2021/11/14 00:30:19;;;;;;;85.13;43.53;;;;;;;5.99;70.29;100199.16;5050434;28;20048;-74
2021/11/14 00:32:45;;;;;;;85.50;42.83;;;;;;;5.96;70.30;100193.34;5050579;28;20147;-74
2021/11/14 00:35:11;;;;;;;90.15;43.63;;;;;;;5.74;70.04;100155.00;5050253;28;20135;-74
2021/11/14 00:37:37;;;;;;;84.63;43.42;;;;;;;6.10;69.78;100200.00;5050505;28;20027;-74
2021/11/14 00:40:10;;;;;;;88.53;45.47;;;;;;;5.91;69.66;100171.91;5050510;28;20028;-74
2021/11/14 00:42:36;;;;;;;80.80;41.58;;;;;;;6.12;69.97;100201.53;5050305;28;20021;-74
2021/11/14 00:45:01;;;;;;;85.40;45.07;;;;;;;6.10;69.74;100194.78;5050615;28;20021;-74
2021/11/14 00:47:27;;;;;;;92.25;45.60;;;;;;;5.90;70.15;100171.09;5050687;28;20075;-74
2021/11/14 00:49:52;;;;;;;90.03;44.33;;;;;;;6.20;70.10;100201.69;5050844;28;20025;-74
2021/11/14 00:52:18;;;;;;;79.82;41.00;;;;;;;6.13;69.79;100179.59;5036149;28;20021;-74
2021/11/14 00:54:43;;;;;;;84.13;46.67;;;;;;;6.25;69.78;100202.13;5054097;28;20391;-74
2021/11/14 00:57:09;;;;;;;97.90;51.57;;;;;;;6.26;69.84;100198.53;5053963;28;20021;-74
2021/11/14 00:59:34;;;;;;;88.70;45.47;;;;;;;5.99;69.96;100149.34;5053812;28;20056;-74
2021/11/14 01:01:59;;;;;;;93.53;45.00;;;;;;;5.93;69.53;100143.78;5053716;28;20035;-74
2021/11/14 01:04:25;;;;;;;79.00;43.85;;;;;;;6.01;69.85;100147.44;5053515;28;20021;-74
2021/11/14 01:06:50;;;;;;;96.40;46.23;;;;;;;6.36;70.17;100209.88;5053720;28;20473;-74
2021/11/14 01:09:16;;;;;;;77.65;42.40;;;;;;;6.32;70.20;100203.25;5035851;28;20508;-74
2021/11/14 01:11:42;;;;;;;88.45;44.55;;;;;;;6.28;70.24;100188.75;5053459;28;20040;-74
2021/11/14 01:14:08;;;;;;;96.30;44.57;;;;;;;6.32;70.21;100187.50;5053754;28;20029;-74
2021/11/14 01:16:34;;;;;;;97.40;47.58;;;;;;;6.44;69.88;100190.03;5053448;28;20464;-74
2021/11/14 01:18:59;;;;;;;91.13;45.38;;;;;;;6.33;69.87;100183.94;5053599;28;20010;-74
2021/11/14 01:21:28;;;;;;;97.45;47.08;;;;;;;6.38;70.30;100197.47;5053495;28;20131;-74
2021/11/14 01:23:55;;;;;;;103.47;47.97;;;;;;;6.40;70.01;100186.84;5053451;28;20107;-74
2021/11/14 01:26:21;;;;;;;103.82;49.30;;;;;;;6.43;70.45;100188.38;5053023;28;20025;-74
2021/11/14 01:28:47;;;;;;;101.22;49.60;;;;;;;6.43;70.35;100185.75;5053249;28;20132;-74
2021/11/14 01:31:12;;;;;;;94.77;44.27;;;;;;;6.39;70.85;100193.06;5053071;28;20060;-74
2021/11/14 01:33:38;;;;;;;88.57;41.83;;;;;;;6.37;70.67;100192.34;5053075;28;20031;-74
2021/11/14 01:36:05;;;;;;;83.55;41.83;;;;;;;6.28;71.01;100180.88;5052906;28;20599;-74
2021/11/14 01:38:31;;;;;;;89.97;44.38;;;;;;;6.37;71.26;100194.97;5052848;28;20104;-74
2021/11/14 01:41:04;;;;;;;83.80;42.55;;;;;;;6.41;71.01;100187.66;5052940;28;20032;-74
2021/11/14 01:43:38;;;;;;;85.15;43.72;;;;;;;6.09;71.11;100135.44;5053028;28;20517;-74
2021/11/14 01:46:03;;;;;;;78.78;39.08;;;;;;;6.51;71.43;100191.13;5052918;28;20021;-74
2021/11/14 01:48:30;;;;;;;79.30;39.88;;;;;;;6.55;71.49;100188.09;5053095;28;20079;-74
2021/11/14 01:50:55;;;;;;;73.53;39.47;;;;;;;6.58;70.95;100187.81;5052900;28;20025;-74
2021/11/14 01:53:21;;;;;;;79.43;41.00;;;;;;;6.62;71.21;100183.13;5035008;28;20391;-74
2021/11/14 01:55:48;;;;;;;74.38;39.55;;;;;;;6.43;71.26;100147.22;5052784;28;20021;-74
2021/11/14 01:58:21;;;;;;;76.05;39.70;;;;;;;6.69;70.72;100186.91;5053064;28;20016;-74
2021/11/14 02:00:54;;;;;;;73.70;40.08;;;;;;;6.67;71.19;100187.00;5052665;28;20025;-74
2021/11/14 02:03:21;;;;;;;72.07;40.88;;;;;;;6.68;71.02;100179.97;5052892;28;20040;-74
2021/11/14 02:05:47;;;;;;;66.95;37.30;;;;;;;6.32;70.54;100118.50;5052521;28;20036;-74
2021/11/14 02:08:13;;;;;;;82.80;43.58;;;;;;;6.59;70.78;100152.75;5034802;28;20021;-74
2021/11/14 02:10:41;;;;;;;88.82;44.97;;;;;;;6.72;71.24;100194.50;5052569;28;20410;-74
2021/11/14 02:13:07;;;;;;;77.18;39.75;;;;;;;6.72;70.90;100186.63;5052500;28;20021;-74
2021/11/14 02:15:33;;;;;;;77.22;41.38;;;;;;;6.71;71.29;100179.72;5052312;28;20021;-74
2021/11/14 02:17:58;;;;;;;71.47;38.30;;;;;;;6.68;71.10;100179.97;5052255;28;20031;-75
2021/11/14 02:20:24;;;;;;;73.45;39.85;;;;;;;6.42;71.58;100131.63;5052463;28;20025;-74
2021/11/14 02:22:49;;;;;;;73.97;40.53;;;;;;;6.30;71.52;100116.00;5052360;28;20448;-74
2021/11/14 02:25:18;;;;;;;87.45;42.78;;;;;;;6.36;71.42;100120.72;5051884;28;20025;-74
2021/11/14 02:27:45;;;;;;;83.57;44.65;;;;;;;6.67;71.85;100173.88;5052257;28;20044;-74
2021/11/14 02:30:14;;;;;;;81.00;43.95;;;;;;;6.78;71.27;100187.88;5052099;28;20414;-74
2021/11/14 02:32:40;;;;;;;85.82;45.00;;;;;;;6.85;71.07;100188.97;5034242;28;20103;-74
2021/11/14 02:35:06;;;;;;;69.40;39.63;;;;;;;6.87;71.40;100182.63;5033970;28;20041;-74
2021/11/14 02:37:32;;;;;;;83.55;43.42;;;;;;;6.93;71.22;100197.81;5051993;28;20025;-74
2021/11/14 02:39:57;;;;;;;66.90;39.10;;;;;;;6.89;70.88;100174.59;5052057;28;20025;-74
2021/11/14 02:42:23;;;;;;;80.88;44.75;;;;;;;6.51;71.16;100113.25;5052011;28;20025;-74
2021/11/14 02:44:48;;;;;;;76.10;42.75;;;;;;;7.00;70.58;100177.91;5051779;28;20075;-74
2021/11/14 02:47:14;;;;;;;68.78;39.38;;;;;;;6.76;70.93;100143.41;5052086;28;20050;-74
2021/11/14 02:49:39;;;;;;;66.82;38.53;;;;;;;6.72;71.53;100130.69;5051735;28;20027;-74
2021/11/14 02:52:05;;;;;;;59.03;36.60;;;;;;;7.00;71.56;100180.53;5051715;28;20017;-74
2021/11/14 02:54:31;;;;;;;59.03;35.53;;;;;;;7.06;71.07;100178.31;5051550;28;20446;-74
2021/11/14 02:56:57;;;;;;;63.05;38.65;;;;;;;6.81;70.93;100132.47;5051634;28;20112;-74
2021/11/14 02:59:23;;;;;;;68.05;39.83;;;;;;;7.10;71.12;100183.16;5051735;28;20501;-74
2021/11/14 03:01:52;;;;;;;62.30;37.95;;;;;;;7.11;70.75;100179.56;5051588;28;20051;-74
2021/11/14 03:04:20;;;;;;;64.30;38.63;;;;;;;7.12;71.32;100180.38;5051362;28;20017;-74
2021/11/14 03:06:47;;;;;;;75.78;42.90;;;;;;;7.15;71.33;100174.84;5051526;28;20025;-74
2021/11/14 03:09:13;;;;;;;70.57;39.75;;;;;;;6.87;71.12;100137.16;5051750;28;21028;-74
2021/11/14 03:11:39;;;;;;;81.30;47.15;;;;;;;7.12;70.74;100177.75;5051770;28;20025;-74
2021/11/14 03:14:05;;;;;;;66.80;40.70;;;;;;;7.08;71.51;100177.22;5050912;28;20017;-74
2021/11/14 03:16:32;;;;;;;64.40;39.20;;;;;;;7.06;71.28;100173.91;5051432;28;20029;-74
2021/11/14 03:18:59;;;;;;;60.58;37.70;;;;;;;7.08;71.12;100185.09;5051354;28;20023;-74
2021/11/14 03:21:25;;;;;;;57.55;35.63;;;;;;;6.91;71.42;100151.66;5051272;28;20405;-74
2021/11/14 03:23:51;;;;;;;59.67;35.30;;;;;;;7.09;71.50;100181.50;5051262;28;20029;-78
2021/11/14 03:26:17;;;;;;;56.08;36.05;;;;;;;7.06;71.16;100171.28;5033269;28;20027;-78
2021/11/14 03:28:44;;;;;;;63.15;37.58;;;;;;;6.74;71.48;100132.22;5051115;28;20058;-78
2021/11/14 03:31:10;;;;;;;64.13;39.55;;;;;;;7.13;71.45;100176.78;5051333;28;20028;-78
2021/11/14 03:33:35;;;;;;;64.35;38.72;;;;;;;7.10;71.09;100179.69;5051280;28;20028;-78
2021/11/14 03:36:05;;;;;;;61.45;40.33;;;;;;;7.10;71.65;100182.31;5050883;28;20052;-78
2021/11/14 03:38:40;;;;;;;69.30;42.35;;;;;;;7.11;71.37;100176.94;5033170;28;20104;-78
2021/11/14 03:41:07;;;;;;;64.43;39.38;;;;;;;6.81;71.29;100135.09;5050978;28;20428;-78
2021/11/14 03:43:33;;;;;;;68.43;42.17;;;;;;;7.13;71.28;100182.88;5051112;28;20048;-78
2021/11/14 03:45:59;;;;;;;66.30;41.13;;;;;;;7.12;71.17;100175.13;5051014;28;20028;-78
2021/11/14 03:48:25;;;;;;;62.45;38.92;;;;;;;6.93;71.48;100141.84;5051244;28;20049;-78
2021/11/14 03:50:52;;;;;;;60.95;36.60;;;;;;;7.19;71.63;100184.09;5050936;28;20021;-78
2021/11/14 03:53:17;;;;;;;57.22;36.42;;;;;;;7.18;71.17;100178.03;5050999;28;20087;-78
2021/11/14 03:55:43;;;;;;;65.85;40.63;;;;;;;7.18;71.22;100180.66;5051037;28;20430;-78
2021/11/14 03:58:10;;;;;;;65.50;38.70;;;;;;;7.14;72.04;100178.44;5050959;28;20383;-78
2021/11/14 04:00:47;;;;;;;58.10;38.10;;;;;;;6.83;71.72;100126.13;5050991;28;20086;-78
2021/11/14 04:03:14;;;;;;;62.95;40.45;;;;;;;6.92;71.84;100132.31;5051122;28;20021;-78
2021/11/14 04:05:43;;;;;;;59.83;38.47;;;;;;;7.18;71.67;100164.91;5050809;28;20021;-78
2021/11/14 04:08:11;;;;;;;57.20;37.25;;;;;;;7.08;71.67;100148.34;5050946;28;20096;-78
2021/11/14 04:10:38;;;;;;;58.83;37.38;;;;;;;6.97;71.60;100130.94;5050891;28;20493;-78
2021/11/14 04:13:04;;;;;;;60.65;38.72;;;;;;;7.16;71.15;100160.75;5050747;28;20040;-78
2021/11/14 04:15:30;;;;;;;62.78;38.28;;;;;;;7.27;71.33;100171.94;5050757;28;20017;-78
2021/11/14 04:17:56;;;;;;;62.85;38.67;;;;;;;6.75;71.42;100081.38;5050668;28;20090;-78
2021/11/14 04:20:26;;;;;;;62.42;41.55;;;;;;;7.15;71.19;100146.78;5032724;28;20020;-78
2021/11/14 04:22:52;;;;;;;60.85;39.33;;;;;;;7.11;71.55;100136.72;5050630;28;20521;-78
2021/11/14 04:25:18;;;;;;;55.13;36.22;;;;;;;7.25;71.58;100157.28;5053292;28;20563;-74
2021/11/14 04:27:44;;;;;;;66.97;39.00;;;;;;;7.39;71.73;100174.38;5054508;28;20093;-74
2021/11/14 04:30:10;;;;;;;59.53;35.13;;;;;;;7.39;71.81;100174.38;5054394;28;20410;-74
2021/11/14 04:32:36;;;;;;;53.78;34.67;;;;;;;7.10;71.71;100120.13;5054315;28;20111;-74
2021/11/14 04:35:02;;;;;;;63.95;39.40;;;;;;;6.93;71.54;100105.09;5053993;28;20077;-74
2021/11/14 04:37:28;;;;;;;59.15;34.10;;;;;;;6.91;71.43;100096.53;5054203;28;20025;-75
2021/11/14 04:39:53;;;;;;;54.25;34.08;;;;;;;7.41;71.41;100173.28;5054306;28;20013;-74
2021/11/14 04:42:19;;;;;;;55.55;34.05;;;;;;;7.39;71.38;100156.84;5054246;28;20067;-74
2021/11/14 04:44:44;;;;;;;72.60;40.80;;;;;;;7.34;71.93;100148.56;5036276;28;20031;-74
2021/11/14 04:47:10;;;;;;;57.65;35.90;;;;;;;7.42;71.22;100166.22;5054350;28;20044;-74
2021/11/14 04:49:36;;;;;;;67.05;38.42;;;;;;;7.29;71.34;100138.47;5054132;28;20031;-74
2021/11/14 04:52:03;;;;;;;70.07;41.05;;;;;;;7.01;71.67;100105.22;5054049;28;20025;-74
2021/11/14 04:54:30;;;;;;;78.88;46.05;;;;;;;7.43;71.50;100174.00;5053902;28;20025;-74
2021/11/14 04:56:55;;;;;;;89.03;50.97;;;;;;;7.36;72.32;100169.41;5054191;28;20027;-74
2021/11/14 04:59:21;;;;;;;71.70;45.13;;;;;;;7.09;71.88;100122.91;5054089;28;20100;-74
2021/11/14 05:01:47;;;;;;;78.53;48.45;;;;;;;7.39;72.01;100183.09;5054085;28;20020;-74
2021/11/14 05:04:12;;;;;;;77.45;48.83;;;;;;;7.38;71.97;100170.09;5053970;28;20025;-74
2021/11/14 05:06:38;;;;;;;80.43;45.90;;;;;;;7.35;72.19;100176.47;5053818;28;20442;-74
2021/11/14 05:09:04;;;;;;;74.60;45.40;;;;;;;7.09;72.29;100126.34;5053971;28;20028;-74
2021/11/14 05:11:30;;;;;;;66.22;40.78;;;;;;;7.38;72.34;100165.69;5053594;28;20021;-74
2021/11/14 05:13:55;;;;;;;73.57;44.97;;;;;;;7.09;72.25;100115.84;5053965;28;20029;-74
2021/11/14 05:16:21;;;;;;;72.70;44.53;;;;;;;7.46;72.17;100170.25;5053774;28;20092;-74
2021/11/14 05:18:46;;;;;;;66.75;40.33;;;;;;;7.49;71.79;100168.16;5053614;28;20029;-74
2021/11/14 05:21:12;;;;;;;67.72;40.58;;;;;;;7.22;71.83;100126.88;5053410;28;20025;-74
2021/11/14 05:23:38;;;;;;;75.22;43.90;;;;;;;7.48;72.32;100161.25;5053456;28;20021;-74
2021/11/14 05:26:04;;;;;;;67.60;41.63;;;;;;;7.60;72.04;100181.13;5053319;28;20516;-74
2021/11/14 05:28:30;;;;;;;70.03;42.50;;;;;;;7.61;71.40;100174.91;5053359;28;20025;-74
2021/11/14 05:30:55;;;;;;;75.00;45.78;;;;;;;7.58;71.56;100183.06;5053460;28;20025;-74
2021/11/14 05:33:21;;;;;;;70.07;43.42;;;;;;;7.59;71.95;100189.16;5053524;28;20024;-74
2021/11/14 05:35:46;;;;;;;70.97;42.67;;;;;;;7.40;71.71;100161.13;5052485;28;20045;-74
2021/11/14 05:38:12;;;;;;;93.15;51.30;;;;;;;7.26;71.53;100127.41;5053581;28;20029;-74
2021/11/14 05:40:38;;;;;;;79.63;44.45;;;;;;;7.65;71.53;100196.47;5052814;28;20017;-74
2021/11/14 05:43:04;;;;;;;69.40;41.33;;;;;;;7.65;71.98;100197.31;5052845;28;20021;-74
2021/11/14 05:45:29;;;;;;;70.13;40.92;;;;;;;7.67;71.93;100209.47;5052953;28;20437;-74
2021/11/14 05:47:56;;;;;;;72.10;43.92;;;;;;;7.44;72.01;100169.56;5053201;28;20025;-74
2021/11/14 05:50:22;;;;;;;80.65;45.15;;;;;;;7.71;72.15;100224.81;5052895;28;20024;-74
2021/11/14 05:52:49;;;;;;;80.57;47.95;;;;;;;7.72;71.54;100207.25;5052706;28;20104;-75
2021/11/14 05:55:14;;;;;;;89.68;52.38;;;;;;;7.57;71.72;100191.94;5052770;28;20021;-74
2021/11/14 06:00:51;;;;;;;95.20;55.88;;;;;;;7.74;71.42;100223.69;5047230;28;20061;-74
2021/11/14 06:06:14;;;;;;;99.45;57.25;;;;;;;7.71;72.07;100226.59;5029500;28;20033;-73
2021/11/14 06:08:40;;;;;;;86.50;53.72;;;;;;;7.42;71.96;100180.19;5052902;28;20561;-74
2021/11/14 06:11:05;;;;;;;85.00;53.00;;;;;;;7.55;72.05;100188.63;5052569;28;20550;-74
2021/11/14 06:13:34;;;;;;;81.30;45.90;;;;;;;7.81;72.22;100219.53;5052539;28;20116;-73
2021/11/14 06:16:00;;;;;;;77.50;46.53;;;;;;;7.85;72.15;100226.97;5052348;28;20024;-73
2021/11/14 06:18:27;;;;;;;76.88;45.92;;;;;;;7.62;72.25;100189.69;5034419;28;20087;-73
2021/11/14 06:20:53;;;;;;;99.88;58.10;;;;;;;7.88;71.81;100225.84;5052583;28;20025;-73
2021/11/14 06:23:18;;;;;;;90.97;54.92;;;;;;;7.96;71.67;100242.56;5052370;28;20025;-73
2021/11/14 06:25:44;;;;;;;96.38;57.70;;;;;;;7.63;71.50;100180.84;5052242;28;20029;-74
2021/11/14 06:28:09;;;;;;;90.22;56.65;;;;;;;8.02;71.41;100235.91;5052420;28;20035;-73
2021/11/14 06:30:36;;;;;;;88.22;56.92;;;;;;;7.99;71.59;100228.31;5052069;28;20021;-73
2021/11/14 06:33:02;;;;;;;94.22;60.05;;;;;;;8.00;71.09;100222.06;5052127;28;20032;-73
2021/11/14 06:35:28;;;;;;;97.03;60.85;;;;;;;8.17;71.44;100239.72;5051915;28;20049;-73
2021/11/14 06:37:54;;;;;;;100.93;61.13;;;;;;;8.19;71.42;100245.69;5052107;28;20025;-73
2021/11/14 06:40:21;;;;;;;84.35;51.47;;;;;;;8.22;71.25;100240.13;5051815;28;20025;-73
2021/11/14 06:42:47;;;;;;;83.03;51.00;;;;;;;8.27;71.03;100250.22;5052153;28;20468;-73
2021/11/14 06:45:13;;;;;;;75.80;45.05;;;;;;;8.32;70.80;100234.00;5051796;28;20145;-73
2021/11/14 06:47:38;;;;;;;72.05;43.30;;;;;;;8.36;70.92;100232.75;5051306;28;20112;-74
2021/11/14 06:50:05;;;;;;;66.97;40.85;;;;;;;8.38;71.35;100238.72;5051830;28;20017;-73
2021/11/14 06:52:31;;;;;;;69.90;43.30;;;;;;;8.33;70.99;100218.09;5051915;28;20039;-73
2021/11/14 06:54:56;;;;;;;74.38;45.45;;;;;;;8.43;71.06;100225.94;5051830;28;20486;-73
2021/11/14 06:57:23;;;;;;;62.95;40.75;;;;;;;8.08;71.05;100172.22;5051830;28;20056;-74
2021/11/14 06:59:49;;;;;;;64.63;39.95;;;;;;;8.51;70.62;100232.13;5051864;28;20401;-73
2021/11/14 07:02:14;;;;;;;69.47;44.58;;;;;;;8.53;70.85;100239.88;5051784;28;20020;-75
2021/11/14 07:04:40;;;;;;;76.25;48.10;;;;;;;8.57;70.85;100234.16;5051431;28;20025;-75
2021/11/14 07:07:06;;;;;;;72.63;44.58;;;;;;;8.44;70.91;100206.53;5033631;28;20029;-75
2021/11/14 07:09:32;;;;;;;72.45;45.45;;;;;;;8.35;70.71;100187.22;5051529;28;20024;-75
2021/11/14 07:11:57;;;;;;;73.57;47.70;;;;;;;8.56;70.72;100221.97;5051589;28;20516;-74
2021/11/14 07:14:25;;;;;;;73.43;46.55;;;;;;;8.67;70.76;100231.47;5051624;28;20017;-75
2021/11/14 07:16:52;;;;;;;62.70;40.90;;;;;;;8.71;70.38;100232.81;5051442;28;20039;-75
2021/11/14 07:19:17;;;;;;;67.35;43.65;;;;;;;8.70;70.57;100222.44;5051178;28;20029;-75
2021/11/14 07:21:43;;;;;;;60.63;38.95;;;;;;;8.64;70.00;100220.41;5051511;28;20020;-75
2021/11/14 07:24:09;;;;;;;59.03;37.53;;;;;;;8.75;70.07;100222.81;5051502;28;20103;-75
2021/11/14 07:26:34;;;;;;;50.95;35.85;;;;;;;8.82;70.02;100226.50;5051482;28;20109;-75
2021/11/14 07:29:00;;;;;;;55.58;38.05;;;;;;;8.62;70.08;100196.84;5033342;28;20104;-74
2021/11/14 07:31:25;;;;;;;55.65;36.60;;;;;;;8.74;69.84;100211.47;5051244;28;20021;-74
2021/11/14 07:33:51;;;;;;;56.70;38.67;;;;;;;8.68;69.89;100204.16;5051283;28;20063;-74
2021/11/14 07:36:16;;;;;;;64.43;40.85;;;;;;;8.91;69.64;100244.88;5051207;28;20009;-74
2021/11/14 07:38:42;;;;;;;56.67;37.05;;;;;;;8.93;69.42;100243.91;5051292;28;20029;-74
2021/11/14 07:41:08;;;;;;;63.35;39.33;;;;;;;8.69;69.18;100192.66;5051122;28;20029;-74
2021/11/14 07:43:33;;;;;;;62.72;40.83;;;;;;;8.86;69.37;100220.78;5051003;28;20490;-74
2021/11/14 07:45:59;;;;;;;64.63;42.90;;;;;;;8.66;69.19;100194.75;5033170;28;20025;-74
2021/11/14 07:48:25;;;;;;;63.58;42.08;;;;;;;8.79;69.39;100218.91;5050998;28;20021;-75
2021/11/14 07:50:54;;;;;;;49.25;33.22;;;;;;;9.03;69.30;100242.88;5051036;28;20017;-75
2021/11/14 07:53:20;;;;;;;47.15;32.38;;;;;;;9.01;69.22;100244.00;5050971;28;20017;-74
2021/11/14 07:55:46;;;;;;;43.70;29.67;;;;;;;8.84;68.95;100221.91;5050997;28;20520;-74
2021/11/14 07:58:12;;;;;;;46.55;30.70;;;;;;;9.02;69.10;100248.28;5050892;28;20029;-74
2021/11/14 08:00:38;;;;;;;49.60;32.88;;;;;;;9.04;68.80;100252.41;5054228;28;20025;-74
2021/11/14 08:03:04;;;;;;;46.10;30.55;;;;;;;9.04;69.11;100254.22;5054985;28;20024;-74
2021/11/14 08:05:30;;;;;;;46.53;32.28;;;;;;;9.06;68.79;100257.53;5054808;28;20406;-74
2021/11/14 08:07:56;;;;;;;41.92;29.33;;;;;;;9.08;68.76;100258.22;5055226;28;20028;-74
2021/11/14 08:10:23;;;;;;;39.63;29.17;;;;;;;9.11;68.81;100252.66;5054897;28;20475;-75
2021/11/14 08:12:49;;;;;;;46.28;32.63;;;;;;;9.14;68.24;100253.16;5054902;28;20409;-74
2021/11/14 08:15:16;;;;;;;39.88;28.00;;;;;;;9.19;68.06;100252.72;5054839;28;20401;-74
2021/11/14 08:17:43;;;;;;;40.97;27.77;;;;;;;9.20;68.15;100254.38;5054440;28;20031;-74
2021/11/14 08:20:10;;;;;;;37.40;26.35;;;;;;;9.06;67.67;100239.94;5054752;28;20494;-74
2021/11/14 08:22:36;;;;;;;38.25;27.15;;;;;;;8.89;67.63;100202.06;5054736;28;20102;-74
2021/11/14 08:25:03;;;;;;;40.00;29.25;;;;;;;9.23;67.78;100256.69;5054512;28;20493;-74
2021/11/14 08:27:30;;;;;;;38.65;28.20;;;;;;;9.26;67.57;100251.13;5054656;28;20498;-74
2021/11/14 08:29:57;;;;;;;45.00;31.95;;;;;;;9.29;67.50;100255.25;5054449;28;20020;-74
2021/11/14 08:32:23;;;;;;;40.38;29.00;;;;;;;8.78;67.58;100165.41;5036662;28;20025;-74
2021/11/14 08:34:48;;;;;;;49.08;32.47;;;;;;;9.32;67.21;100247.88;5054372;28;20048;-75
2021/11/14 08:37:14;;;;;;;43.80;29.75;;;;;;;9.03;67.33;100203.34;5054458;28;20021;-74
2021/11/14 08:39:40;;;;;;;45.75;32.75;;;;;;;9.33;67.35;100252.16;5054144;28;20582;-74
2021/11/14 08:42:06;;;;;;;45.42;32.30;;;;;;;9.22;67.58;100247.13;5054214;28;20033;-74
2021/11/14 08:44:32;;;;;;;50.47;34.83;;;;;;;9.19;67.51;100250.91;5054010;28;20028;-74
2021/11/14 08:46:58;;;;;;;48.80;33.47;;;;;;;8.97;67.67;100208.41;5035948;28;20021;-74
2021/11/14 08:49:24;;;;;;;51.15;34.25;;;;;;;9.27;67.77;100247.50;5054131;28;20021;-74
2021/11/14 08:51:50;;;;;;;48.17;32.45;;;;;;;9.28;67.81;100237.81;5054173;28;20417;-74
2021/11/14 08:54:15;;;;;;;50.60;34.70;;;;;;;9.28;67.57;100238.63;5054100;28;20555;-74
2021/11/14 08:56:41;;;;;;;52.95;33.22;;;;;;;9.32;67.62;100239.97;5054097;28;20553;-74
2021/11/14 08:59:10;;;;;;;48.20;32.92;;;;;;;9.19;67.38;100207.94;5036145;28;20043;-74
2021/11/14 09:01:37;;;;;;;49.17;33.85;;;;;;;9.17;67.39;100202.81;5054062;28;20028;-73
2021/11/14 09:04:03;;;;;;;48.17;34.40;;;;;;;9.40;67.50;100237.41;5053885;28;20029;-74
2021/11/14 09:06:29;;;;;;;47.72;33.42;;;;;;;9.00;67.16;100179.13;5035790;28;20025;-74
2021/11/14 09:08:55;;;;;;;45.50;31.65;;;;;;;9.42;66.72;100226.72;5053554;28;20021;-74
2021/11/14 09:11:21;;;;;;;49.20;33.63;;;;;;;9.47;67.14;100224.44;5052711;28;20021;-74
2021/11/14 09:13:47;;;;;;;55.92;39.35;;;;;;;9.48;67.26;100224.28;5053556;28;20103;-74
2021/11/14 09:16:13;;;;;;;57.28;38.05;;;;;;;9.19;66.87;100173.69;5053804;28;20100;-74
2021/11/14 09:18:39;;;;;;;52.88;36.85;;;;;;;9.52;67.11;100225.63;5035696;28;20408;-74
2021/11/14 09:21:04;;;;;;;48.60;33.78;;;;;;;9.56;67.12;100219.06;5053661;28;20100;-74
2021/11/14 09:23:30;;;;;;;48.88;33.10;;;;;;;9.33;67.30;100186.28;5053602;28;20033;-74
2021/11/14 09:25:56;;;;;;;57.10;37.40;;;;;;;9.63;67.04;100211.34;5053278;28;20498;-75
2021/11/14 09:28:22;;;;;;;47.95;33.70;;;;;;;9.65;67.01;100209.41;5053286;28;20177;-74
2021/11/14 09:30:50;;;;;;;49.47;34.75;;;;;;;9.45;67.00;100184.22;5053235;28;20021;-74
2021/11/14 09:33:19;;;;;;;53.70;32.13;;;;;;;9.56;67.18;100189.25;5053476;28;20052;-74
2021/11/14 09:35:44;;;;;;;47.00;33.35;;;;;;;9.67;66.82;100204.00;5052995;28;20047;-74
2021/11/14 09:38:10;;;;;;;51.50;37.10;;;;;;;9.51;66.82;100170.44;5053249;28;20485;-75
2021/11/14 09:40:37;;;;;;;57.38;37.08;;;;;;;9.27;66.92;100136.84;5053136;28;20032;-74
2021/11/14 09:43:03;;;;;;;50.85;33.63;;;;;;;9.65;66.93;100203.28;5053279;28;20025;-74
2021/11/14 09:45:30;;;;;;;55.60;36.88;;;;;;;9.65;66.89;100192.75;5052860;28;20025;-74
2021/11/14 09:47:56;;;;;;;53.35;35.88;;;;;;;9.31;66.87;100140.00;5052792;28;20506;-74
2021/11/14 09:50:24;;;;;;;56.83;40.33;;;;;;;9.69;66.62;100191.47;5053032;28;20028;-74
2021/11/14 09:52:50;;;;;;;52.70;34.92;;;;;;;9.69;66.77;100194.94;5052916;28;20021;-74
2021/11/14 09:55:16;;;;;;;56.97;38.28;;;;;;;9.69;66.87;100187.03;5051875;28;20044;-74
2021/11/14 09:57:42;;;;;;;54.55;35.38;;;;;;;9.67;67.13;100175.00;5053178;28;20025;-75
2021/11/14 10:00:12;;;;;;;50.42;36.38;;;;;;;9.48;66.95;100134.66;5052960;28;20111;-74
2021/11/14 10:02:38;;;;;;;51.35;36.42;;;;;;;9.55;66.52;100143.59;5052763;28;20068;-74
2021/11/14 10:05:06;;;;;;;50.03;33.65;;;;;;;9.90;66.65;100184.00;5052659;28;20457;-75
2021/11/14 10:07:32;;;;;;;55.13;36.85;;;;;;;9.89;66.13;100187.63;5052874;28;20457;-74
2021/11/14 10:09:59;;;;;;;52.30;35.13;;;;;;;9.93;66.27;100183.69;5052790;28;20050;-74
2021/11/14 10:12:35;;;;;;;55.72;37.15;;;;;;;9.92;66.07;100179.41;5052702;28;20447;-74
2021/11/14 10:15:04;;;;;;;50.03;35.72;;;;;;;9.97;65.95;100186.84;5052570;28;20013;-74
2021/11/14 10:17:30;;;;;;;46.95;32.55;;;;;;;9.80;66.20;100141.94;5052406;28;20410;-74
2021/11/14 10:20:05;;;;;;;54.38;37.92;;;;;;;10.03;66.19;100168.56;5034459;28;20021;-74
2021/11/14 10:22:32;;;;;;;53.22;37.45;;;;;;;9.79;66.10;100131.53;5052337;28;20028;-74
2021/11/14 10:24:57;;;;;;;53.38;38.22;;;;;;;10.09;65.91;100173.19;5052432;28;20025;-74
2021/11/14 10:27:28;;;;;;;53.15;37.67;;;;;;;10.16;65.77;100168.13;5052115;28;20098;-74
2021/11/14 10:29:56;;;;;;;54.53;36.58;;;;;;;9.98;65.73;100128.66;5052188;28;20123;-74
2021/11/14 10:32:21;;;;;;;58.60;38.72;;;;;;;10.03;65.69;100139.53;5052190;28;20128;-74
2021/11/14 10:34:56;;;;;;;52.85;38.47;;;;;;;10.21;65.55;100165.84;5033045;28;20510;-74
2021/11/14 10:37:23;;;;;;;57.22;40.30;;;;;;;10.28;65.39;100176.59;5050053;28;20048;-74
2021/11/14 10:39:54;;;;;;;54.90;38.30;;;;;;;10.04;65.11;100121.91;5048270;28;20108;-74
2021/11/14 10:42:20;;;;;;;53.90;38.03;;;;;;;10.34;65.30;100160.94;5050931;28;20033;-74
2021/11/14 10:44:48;;;;;;;60.67;39.85;;;;;;;10.23;65.16;100144.56;5048270;28;20298;-75
2021/11/14 10:47:14;;;;;;;49.90;35.70;;;;;;;10.07;65.30;100130.31;5033574;28;20090;-74
2021/11/14 10:49:58;;;;;;;61.13;40.55;;;;;;;10.36;65.27;100166.06;5034097;28;20037;-74
2021/11/14 10:52:28;;;;;;;55.17;36.22;;;;;;;10.32;65.10;100172.66;5050894;28;20079;-74
2021/11/14 10:54:56;;;;;;;57.63;36.97;;;;;;;10.33;65.05;100167.19;5059434;28;20059;-74
2021/11/14 10:57:27;;;;;;;54.55;38.22;;;;;;;10.37;64.97;100165.06;5049347;28;20409;-74
2021/11/14 10:59:53;;;;;;;57.22;38.58;;;;;;;10.41;65.08;100169.06;5071772;28;20070;-74
2021/11/14 11:02:20;;;;;;;52.17;37.60;;;;;;;10.22;64.61;100129.72;5055421;28;20032;-74
2021/11/14 11:04:47;;;;;;;60.25;40.28;;;;;;;10.48;64.82;100151.59;5050078;28;20052;-74
2021/11/14 11:07:13;;;;;;;56.35;39.47;;;;;;;10.26;64.25;100102.84;5051445;28;20060;-74
2021/11/14 11:09:40;;;;;;;63.20;42.72;;;;;;;10.51;64.65;100156.53;5051265;28;20497;-74
2021/11/14 11:12:22;;;;;;;59.00;40.13;;;;;;;10.49;64.57;100138.22;5033507;28;20422;-74
2021/11/14 11:15:08;;;;;;;62.65;44.08;;;;;;;10.55;64.46;100139.41;5070094;28;20044;-75
2021/11/14 11:17:49;;;;;;;54.83;39.22;;;;;;;10.64;63.97;100135.78;5071436;28;20121;-75
2021/11/14 11:20:18;;;;;;;43.85;33.53;;;;;;;10.67;63.77;100121.41;5071444;28;20132;-74